createdAt,value
2019-01-15T00:02:58.506Z,3.41
2019-01-15T00:08:02.067Z,3.38
2019-01-15T00:13:05.513Z,3.32
2019-01-15T00:18:08.937Z,3.36
2019-01-15T00:23:12.373Z,3.33
2019-01-15T00:28:15.803Z,3.19
2019-01-15T00:33:19.310Z,3.17
2019-01-15T00:38:22.751Z,3.08
2019-01-15T00:43:27.151Z,3.13
2019-01-15T00:48:30.595Z,3.16
2019-01-15T00:53:34.083Z,3.10
2019-01-15T00:58:37.539Z,3.12
2019-01-15T01:03:41.042Z,3.09
2019-01-15T01:08:44.478Z,3.17
2019-01-15T01:13:47.990Z,3.06
2019-01-15T01:18:51.411Z,3.09
2019-01-15T01:23:54.836Z,3.10
2019-01-15T01:28:58.280Z,3.13
2019-01-15T01:34:01.712Z,3.04
2019-01-15T01:39:07.864Z,3.08
2019-01-15T01:44:11.304Z,3.12
2019-01-15T01:49:14.749Z,3.09
2019-01-15T01:54:18.227Z,3.11
2019-01-15T01:59:21.673Z,3.12
2019-01-15T02:04:25.120Z,3.14
2019-01-15T02:09:28.578Z,3.22
2019-01-15T02:14:32.012Z,3.26
2019-01-15T02:19:35.462Z,3.21
2019-01-15T02:24:39.070Z,3.21
2019-01-15T02:29:42.496Z,3.16
2019-01-15T02:34:45.947Z,3.10
2019-01-15T02:39:49.400Z,3.12
2019-01-15T02:44:52.933Z,3.19
2019-01-15T02:49:56.380Z,3.20
2019-01-15T02:54:59.819Z,3.20
2019-01-15T03:00:04.858Z,3.16
2019-01-15T03:05:10.323Z,3.16
2019-01-15T03:10:19.096Z,3.20
2019-01-15T03:15:22.638Z,3.21
2019-01-15T03:20:26.126Z,3.19
2019-01-15T03:25:29.576Z,3.21
2019-01-15T03:30:33.088Z,3.23
2019-01-15T03:35:36.670Z,3.29
2019-01-15T03:40:40.097Z,3.27
2019-01-15T03:45:43.549Z,3.34
2019-01-15T03:50:46.965Z,3.29
2019-01-15T03:55:50.405Z,3.32
2019-01-15T04:00:53.829Z,3.28
2019-01-15T04:05:57.283Z,3.26
2019-01-15T04:11:00.835Z,3.27
2019-01-15T04:16:04.418Z,3.28
2019-01-15T04:21:07.930Z,3.32
2019-01-15T04:26:11.409Z,3.30
2019-01-15T04:31:14.845Z,3.31
2019-01-15T04:36:18.265Z,3.34
2019-01-15T04:41:21.694Z,3.35
2019-01-15T04:46:25.135Z,3.39
2019-01-15T04:51:28.552Z,3.45
2019-01-15T04:56:33.614Z,3.48
2019-01-15T05:01:37.126Z,3.50
2019-01-15T05:06:40.573Z,3.52
2019-01-15T05:11:44.022Z,3.57
2019-01-15T05:16:47.550Z,3.50
2019-01-15T05:21:51.003Z,3.48
2019-01-15T05:26:54.526Z,3.55
2019-01-15T05:31:57.991Z,3.57
2019-01-15T05:37:01.432Z,3.56
2019-01-15T05:42:05.369Z,3.61
2019-01-15T05:47:08.811Z,3.72
2019-01-15T05:52:12.251Z,3.71
2019-01-15T05:57:15.708Z,3.87
2019-01-15T06:02:19.207Z,3.89
2019-01-15T06:07:22.647Z,3.88
2019-01-15T06:12:26.097Z,3.85
2019-01-15T06:17:29.534Z,3.86
2019-01-15T06:22:32.991Z,3.94
2019-01-15T06:27:36.524Z,3.91
2019-01-15T06:32:39.960Z,3.89
2019-01-15T06:37:43.465Z,3.98
2019-01-15T06:42:47.143Z,4.04
2019-01-15T06:47:51.329Z,4.10
2019-01-15T06:52:54.784Z,4.17
2019-01-15T06:57:58.222Z,4.18
2019-01-15T07:03:01.902Z,4.23
2019-01-15T07:08:05.413Z,4.31
2019-01-15T07:13:08.854Z,4.32
2019-01-15T07:18:12.288Z,4.42
2019-01-15T07:23:15.715Z,4.40
2019-01-15T07:28:19.136Z,4.47
2019-01-15T07:33:22.586Z,4.53
2019-01-15T07:38:26.064Z,4.54
2019-01-15T07:43:29.524Z,4.53
2019-01-15T07:48:32.960Z,4.59
2019-01-15T07:53:36.583Z,4.60
2019-01-15T07:58:40.097Z,4.63
2019-01-15T08:03:43.530Z,4.66
2019-01-15T08:08:46.966Z,4.73
2019-01-15T08:13:50.585Z,4.84
2019-01-15T08:18:53.994Z,4.84
2019-01-15T08:23:57.429Z,4.97
2019-01-15T08:29:00.872Z,5.00
2019-01-15T08:34:04.473Z,5.02
2019-01-15T08:39:08.482Z,5.06
2019-01-15T08:44:19.029Z,5.19
2019-01-15T08:49:17.045Z,5.25
2019-01-15T08:54:20.653Z,5.33
2019-01-15T08:59:24.106Z,5.20
2019-01-15T09:04:27.655Z,5.28
2019-01-15T09:09:31.445Z,5.33
2019-01-15T09:14:34.971Z,5.34
2019-01-15T09:19:38.487Z,5.31
2019-01-15T09:24:41.946Z,5.42
2019-01-15T09:29:45.385Z,5.48
2019-01-15T09:34:48.831Z,5.54
2019-01-15T09:39:52.326Z,5.60
2019-01-15T09:44:56.049Z,5.69
2019-01-15T09:49:59.505Z,5.70
2019-01-15T09:55:04.080Z,5.78
2019-01-15T10:00:16.760Z,5.86
2019-01-15T10:05:20.220Z,5.93
2019-01-15T10:10:23.671Z,5.97
2019-01-15T10:15:27.267Z,6.02
2019-01-15T10:20:30.727Z,6.03
2019-01-15T10:25:34.541Z,6.02
2019-01-15T10:30:52.707Z,6.07
2019-01-15T10:35:55.871Z,6.15
2019-01-15T10:40:59.564Z,6.13
2019-01-15T10:46:04.575Z,6.18
2019-01-15T10:51:08.090Z,6.23
2019-01-15T10:56:11.531Z,6.28
2019-01-15T11:01:14.973Z,6.33
2019-01-15T11:06:18.640Z,6.34
2019-01-15T11:11:22.080Z,6.34
2019-01-15T11:16:25.506Z,6.36
2019-01-15T11:21:28.952Z,6.40
2019-01-15T11:26:32.398Z,6.45
2019-01-15T11:31:35.847Z,6.58
2019-01-15T11:36:39.333Z,6.60
2019-01-15T11:41:42.911Z,6.67
2019-01-15T11:46:46.368Z,6.69
2019-01-15T11:51:49.809Z,6.72
2019-01-15T11:56:53.261Z,6.75
2019-01-15T12:01:57.784Z,6.84
2019-01-15T12:07:08.569Z,6.92
2019-01-15T12:12:13.732Z,7.03
2019-01-15T12:17:18.847Z,7.08
2019-01-15T12:22:30.057Z,7.17
2019-01-15T12:27:35.333Z,7.29
2019-01-15T12:32:56.408Z,7.39
2019-01-15T12:38:07.192Z,7.43
2019-01-15T12:43:12.281Z,7.46
2019-01-15T12:48:26.095Z,7.40
2019-01-15T12:53:31.249Z,7.37
2019-01-15T12:58:36.315Z,7.36
2019-01-15T13:03:50.173Z,7.41
2019-01-15T13:08:57.675Z,7.37
2019-01-15T13:14:05.198Z,7.34
2019-01-15T13:19:26.386Z,7.29
2019-01-15T13:24:37.057Z,7.33
2019-01-15T13:29:44.767Z,7.41
2019-01-15T13:34:52.582Z,7.41
2019-01-15T13:40:00.282Z,7.37
2019-01-15T13:45:09.343Z,7.39
2019-01-15T13:50:17.282Z,7.39
2019-01-15T13:55:22.346Z,7.37
2019-01-15T14:00:27.450Z,7.40
2019-01-15T14:05:35.237Z,7.43
2019-01-15T14:10:49.518Z,7.40
2019-01-15T14:16:09.479Z,7.34
2019-01-15T14:21:17.468Z,7.38
2019-01-15T14:26:25.509Z,7.35
2019-01-15T14:31:36.555Z,7.42
2019-01-15T14:36:44.192Z,7.44
2019-01-15T14:42:01.472Z,7.44
2019-01-15T14:47:21.388Z,7.36
2019-01-15T14:52:35.148Z,7.37
2019-01-15T14:57:45.887Z,7.34
2019-01-15T15:02:50.964Z,7.41
2019-01-15T15:08:01.722Z,7.30
2019-01-15T15:13:15.915Z,7.29
2019-01-15T15:18:23.416Z,7.26
2019-01-15T15:23:37.148Z,7.30
2019-01-15T15:28:57.519Z,7.28
2019-01-15T15:34:11.360Z,7.30
2019-01-15T15:39:32.693Z,7.30
2019-01-15T15:44:52.609Z,7.25
2019-01-15T15:50:12.810Z,7.22
2019-01-15T15:55:17.896Z,7.23
2019-01-15T16:00:39.065Z,7.22
2019-01-15T16:05:46.836Z,7.18
2019-01-15T16:10:57.608Z,7.19
2019-01-15T16:16:02.759Z,7.17
2019-01-15T16:21:19.853Z,7.17
2019-01-15T16:26:24.938Z,7.13
2019-01-15T16:31:30.028Z,7.17
2019-01-15T16:36:51.081Z,7.13
2019-01-15T16:41:56.217Z,7.15
2019-01-15T16:47:01.234Z,7.12
2019-01-15T16:52:12.275Z,7.13
2019-01-15T16:57:22.917Z,7.07
2019-01-15T17:02:43.909Z,7.15
2019-01-15T17:07:51.711Z,7.18
2019-01-15T17:12:59.487Z,7.14
2019-01-15T17:18:10.234Z,7.14
2019-01-15T17:23:15.300Z,7.18
2019-01-15T17:28:20.386Z,7.11
2019-01-15T17:33:40.139Z,7.16
2019-01-15T17:38:53.785Z,7.14
2019-01-15T17:44:05.005Z,7.16
2019-01-15T17:49:25.979Z,7.21
2019-01-15T17:54:31.064Z,7.21
2019-01-15T17:59:36.170Z,7.21
2019-01-15T18:04:41.247Z,7.16
2019-01-15T18:09:48.943Z,7.24
2019-01-15T18:15:11.811Z,7.23
2019-01-15T18:20:31.668Z,7.23
2019-01-15T18:25:36.748Z,7.25
2019-01-15T18:30:57.716Z,7.23
2019-01-15T18:36:19.194Z,7.24
2019-01-15T18:41:33.052Z,7.26
2019-01-15T18:46:38.210Z,7.26
2019-01-15T18:51:59.465Z,7.25
2019-01-15T18:57:07.241Z,7.32
2019-01-15T19:02:12.326Z,7.30
2019-01-15T19:07:23.529Z,7.26
2019-01-15T19:12:28.604Z,7.27
2019-01-15T19:17:42.633Z,7.32
2019-01-15T19:22:47.708Z,7.34
2019-01-15T19:28:13.527Z,7.36
2019-01-15T19:33:21.012Z,7.35
2019-01-15T19:38:26.171Z,7.34
2019-01-15T19:43:47.142Z,7.34
2019-01-15T19:48:54.871Z,7.32
2019-01-15T19:54:02.375Z,7.33
2019-01-15T19:59:10.294Z,7.39
2019-01-15T20:04:26.897Z,7.37
2019-01-15T20:09:48.263Z,7.33
2019-01-15T20:15:09.560Z,7.32
2019-01-15T20:20:14.789Z,7.27
2019-01-15T20:25:22.467Z,7.20
2019-01-15T20:30:27.637Z,7.21
2019-01-15T20:35:48.336Z,7.26
2019-01-15T20:41:09.277Z,7.20
2019-01-15T20:46:17.165Z,7.22
2019-01-15T20:51:27.993Z,7.16
2019-01-15T20:56:35.499Z,7.19
2019-01-15T21:01:46.694Z,7.18
2019-01-15T21:07:00.561Z,7.17
2019-01-15T21:12:23.480Z,7.20
2019-01-15T21:17:32.857Z,7.12
2019-01-15T21:22:41.397Z,7.15
2019-01-15T21:27:49.005Z,7.18
2019-01-15T21:33:09.188Z,7.22
2019-01-15T21:38:26.059Z,7.24
2019-01-15T21:43:46.212Z,7.29
2019-01-15T21:48:51.360Z,7.24
2019-01-15T21:53:56.442Z,7.30
2019-01-15T21:59:09.985Z,7.28
2019-01-15T22:04:23.677Z,7.34
2019-01-15T22:09:31.481Z,7.31
2019-01-15T22:14:48.625Z,7.29
2019-01-15T22:20:02.624Z,7.27
2019-01-15T22:25:25.837Z,7.29
2019-01-15T22:30:36.357Z,7.26
2019-01-15T22:35:47.429Z,7.30
2019-01-15T22:41:04.193Z,7.35
2019-01-15T22:46:09.278Z,7.27
2019-01-15T22:51:14.348Z,7.29
2019-01-15T22:56:22.585Z,7.28
2019-01-15T23:01:45.571Z,7.29
2019-01-15T23:06:53.333Z,7.34
2019-01-15T23:11:58.413Z,7.31
2019-01-15T23:17:19.172Z,7.35
2019-01-15T23:22:24.270Z,7.35
2019-01-15T23:27:29.362Z,7.33
2019-01-15T23:32:37.323Z,7.29
2019-01-15T23:37:51.050Z,7.30
2019-01-15T23:42:58.893Z,7.24
2019-01-15T23:48:10.115Z,7.25
2019-01-15T23:53:15.211Z,7.22
2019-01-15T23:58:37.847Z,7.20
